createdAt,value
2022-08-05T00:01:35.455Z,28.20
2022-08-05T00:04:08.205Z,27.80
2022-08-05T00:06:36.449Z,27.10
2022-08-05T00:09:12.942Z,26.60
2022-08-05T00:11:49.002Z,26.30
2022-08-05T00:14:27.822Z,25.80
2022-08-05T00:17:01.895Z,25.80
2022-08-05T00:19:33.814Z,26.10
2022-08-05T00:22:12.204Z,26.50
2022-08-05T00:24:42.545Z,27.00
2022-08-05T00:27:14.012Z,27.10
2022-08-05T00:29:44.607Z,27.40
2022-08-05T00:32:15.028Z,27.60
2022-08-05T00:35:03.593Z,27.00
2022-08-05T00:37:50.721Z,26.20
2022-08-05T00:40:26.980Z,26.10
2022-08-05T00:42:57.262Z,26.10
2022-08-05T00:45:38.034Z,26.40
2022-08-05T00:48:07.869Z,26.80
2022-08-05T00:50:35.947Z,27.00
2022-08-05T00:53:16.058Z,27.00
2022-08-05T00:55:53.448Z,26.80
2022-08-05T00:58:21.198Z,25.90
2022-08-05T01:00:55.577Z,25.70
2022-08-05T01:03:24.193Z,25.90
2022-08-05T01:05:59.030Z,25.80
2022-08-05T01:08:39.826Z,25.70
2022-08-05T01:11:21.793Z,25.40
2022-08-05T01:14:01.733Z,25.20
2022-08-05T01:16:34.753Z,25.40
2022-08-05T01:19:14.340Z,25.40
2022-08-05T01:21:58.198Z,25.50
2022-08-05T01:24:53.122Z,25.50
2022-08-05T01:27:50.700Z,25.60
2022-08-05T01:30:34.511Z,25.60
2022-08-05T01:33:08.301Z,25.60
2022-08-05T01:35:51.215Z,25.60
2022-08-05T01:38:27.382Z,25.90
2022-08-05T01:40:59.569Z,25.90
2022-08-05T01:43:29.572Z,26.10
2022-08-05T01:46:06.864Z,26.30
2022-08-05T01:48:37.392Z,26.40
2022-08-05T01:51:12.548Z,25.70
2022-08-05T01:53:58.048Z,25.80
2022-08-05T01:58:11.870Z,25.90
2022-08-05T01:59:22.976Z,25.80
2022-08-05T02:01:54.678Z,25.60
2022-08-05T02:04:25.012Z,25.50
2022-08-05T02:06:53.982Z,25.50
2022-08-05T02:09:22.064Z,25.20
2022-08-05T02:11:59.940Z,24.80
2022-08-05T02:14:33.877Z,25.00
2022-08-05T02:17:08.972Z,25.10
2022-08-05T02:20:01.266Z,25.10
2022-08-05T02:22:32.303Z,25.10
2022-08-05T02:25:06.520Z,25.00
2022-08-05T02:27:59.113Z,24.80
2022-08-05T02:30:34.305Z,24.50
2022-08-05T02:33:04.686Z,24.00
2022-08-05T02:35:38.571Z,23.60
2022-08-05T02:38:19.861Z,23.30
2022-08-05T02:40:55.212Z,22.80
2022-08-05T02:43:24.649Z,22.80
2022-08-05T02:45:54.856Z,23.20
2022-08-05T02:48:29.226Z,23.40
2022-08-05T02:51:00.170Z,23.50
2022-08-05T02:53:29.104Z,23.70
2022-08-05T02:56:09.156Z,23.50
2022-08-05T02:58:38.124Z,23.60
2022-08-05T03:01:19.517Z,23.80
2022-08-05T03:04:02.534Z,23.20
2022-08-05T03:06:54.923Z,23.10
2022-08-05T03:09:36.034Z,23.50
2022-08-05T03:12:05.102Z,23.00
2022-08-05T03:14:32.893Z,23.30
2022-08-05T03:17:05.049Z,23.20
2022-08-05T03:19:36.478Z,23.10
2022-08-05T03:22:05.104Z,22.90
2022-08-05T03:24:47.098Z,22.80
2022-08-05T03:27:18.554Z,22.70
2022-08-05T03:30:08.483Z,22.70
2022-08-05T03:32:35.859Z,22.70
2022-08-05T03:35:05.584Z,22.50
2022-08-05T03:37:45.779Z,22.20
2022-08-05T03:40:15.396Z,22.40
2022-08-05T03:42:52.915Z,22.70
2022-08-05T03:45:23.224Z,22.70
2022-08-05T03:47:56.969Z,22.90
2022-08-05T03:50:25.690Z,23.30
2022-08-05T03:55:34.754Z,23.50
2022-08-05T03:56:12.162Z,23.70
2022-08-05T03:58:45.763Z,23.40
2022-08-05T04:01:15.746Z,23.10
2022-08-05T04:03:56.921Z,22.90
2022-08-05T04:06:47.438Z,22.80
2022-08-05T04:09:26.150Z,22.70
2022-08-05T04:11:56.858Z,22.60
2022-08-05T04:14:30.462Z,22.90
2022-08-05T04:17:00.519Z,23.00
2022-08-05T04:19:30.798Z,23.20
2022-08-05T04:22:08.092Z,23.40
2022-08-05T04:24:39.379Z,23.40
2022-08-05T04:27:13.128Z,23.30
2022-08-05T04:29:41.470Z,23.30
2022-08-05T04:32:10.140Z,23.50
2022-08-05T04:34:43.005Z,23.60
2022-08-05T04:37:11.787Z,23.60
2022-08-05T04:39:40.704Z,23.70
2022-08-05T04:42:09.544Z,23.80
2022-08-05T04:44:37.394Z,23.80
2022-08-05T04:47:08.766Z,23.80
2022-08-05T04:50:01.290Z,23.70
2022-08-05T04:52:27.401Z,23.60
2022-08-05T04:54:57.371Z,23.60
2022-08-05T04:57:29.170Z,23.60
2022-08-05T05:00:05.820Z,23.50
2022-08-05T05:02:41.835Z,23.60
2022-08-05T05:05:16.605Z,23.60
2022-08-05T05:08:01.627Z,23.70
2022-08-05T05:10:30.249Z,23.70
2022-08-05T05:12:58.415Z,23.70
2022-08-05T05:15:56.194Z,23.70
2022-08-05T05:18:28.329Z,23.50
2022-08-05T05:20:59.590Z,23.60
2022-08-05T05:24:01.948Z,23.50
2022-08-05T05:26:17.357Z,23.70
2022-08-05T05:28:45.356Z,23.90
2022-08-05T05:31:13.679Z,24.10
2022-08-05T05:33:59.285Z,23.80
2022-08-05T05:36:28.817Z,23.80
2022-08-05T05:38:59.198Z,24.00
2022-08-05T05:41:40.739Z,24.20
2022-08-05T05:44:36.870Z,24.30
2022-08-05T05:46:57.967Z,24.40
2022-08-05T05:49:25.916Z,24.50
2022-08-05T05:51:53.816Z,24.70
2022-08-05T05:54:49.750Z,24.60
2022-08-05T05:57:13.825Z,24.60
2022-08-05T05:59:46.960Z,24.90
2022-08-05T06:02:16.883Z,24.70
2022-08-05T06:04:49.191Z,24.30
2022-08-05T06:07:17.261Z,23.90
2022-08-05T06:10:04.360Z,23.90
2022-08-05T06:12:34.665Z,23.30
2022-08-05T06:15:16.514Z,23.30
2022-08-05T06:17:54.769Z,23.60
2022-08-05T06:20:23.004Z,23.80
2022-08-05T06:22:50.799Z,24.00
2022-08-05T06:25:59.142Z,23.70
2022-08-05T06:28:12.211Z,23.50
2022-08-05T06:30:49.157Z,23.50
2022-08-05T06:33:19.268Z,23.50
2022-08-05T06:36:03.841Z,23.80
2022-08-05T06:38:36.758Z,23.80
2022-08-05T06:41:07.880Z,23.80
2022-08-05T06:43:59.228Z,23.60
2022-08-05T06:46:30.405Z,23.80
2022-08-05T06:48:59.453Z,23.60
2022-08-05T06:51:29.853Z,23.10
2022-08-05T06:53:58.736Z,23.00
2022-08-05T06:56:27.947Z,23.00
2022-08-05T06:58:55.807Z,23.30
2022-08-05T07:01:27.510Z,23.60
2022-08-05T07:03:59.904Z,23.70
2022-08-05T07:06:28.481Z,23.60
2022-08-05T07:08:56.391Z,23.40
2022-08-05T07:11:30.853Z,23.30
2022-08-05T07:14:20.761Z,23.10
2022-08-05T07:17:58.472Z,22.70
2022-08-05T07:22:36.555Z,22.60
2022-08-05T07:25:22.433Z,23.00
2022-08-05T07:28:01.429Z,23.30
2022-08-05T07:30:32.628Z,23.50
2022-08-05T07:33:01.556Z,23.30
2022-08-05T07:36:04.716Z,23.30
2022-08-05T07:38:32.493Z,23.20
2022-08-05T07:42:09.594Z,23.40
2022-08-05T07:43:55.142Z,23.80
2022-08-05T07:46:25.976Z,23.90
2022-08-05T07:49:04.156Z,23.90
2022-08-05T07:51:36.982Z,23.90
2022-08-05T07:54:09.665Z,23.90
2022-08-05T07:57:00.836Z,24.30
2022-08-05T07:59:38.232Z,24.30
2022-08-05T08:02:16.041Z,24.30
2022-08-05T08:04:46.019Z,24.40
2022-08-05T08:07:14.056Z,24.70
2022-08-05T08:09:42.976Z,25.00
2022-08-05T08:12:35.083Z,24.80
2022-08-05T08:15:03.502Z,24.90
2022-08-05T08:17:32.472Z,25.20
2022-08-05T08:20:42.614Z,25.40
2022-08-05T08:22:52.833Z,25.60
2022-08-05T08:25:26.740Z,25.80
2022-08-05T08:28:03.919Z,25.50
2022-08-05T08:30:40.715Z,25.40
2022-08-05T08:33:15.578Z,25.30
2022-08-05T08:35:52.322Z,25.30
2022-08-05T08:38:35.154Z,25.60
2022-08-05T08:41:08.296Z,25.50
2022-08-05T08:45:20.621Z,25.80
2022-08-05T08:46:28.590Z,26.10
2022-08-05T08:49:07.965Z,25.90
2022-08-05T08:52:04.306Z,25.80
2022-08-05T08:54:36.266Z,25.90
2022-08-05T08:57:11.382Z,26.30
2022-08-05T08:59:41.802Z,26.60
2022-08-05T09:02:19.798Z,26.90
2022-08-05T09:05:16.443Z,27.60
2022-08-05T09:07:40.049Z,27.70
2022-08-05T09:10:27.833Z,28.00
2022-08-05T09:13:04.835Z,27.90
2022-08-05T09:15:36.827Z,28.20
2022-08-05T09:18:08.901Z,28.40
2022-08-05T09:20:38.027Z,28.70
2022-08-05T09:23:18.808Z,28.70
2022-08-05T09:26:00.857Z,28.90
2022-08-05T09:28:33.719Z,29.10
2022-08-05T09:31:23.294Z,28.80
2022-08-05T09:33:59.758Z,28.70
2022-08-05T09:36:45.854Z,28.70
2022-08-05T09:39:41.131Z,28.50
2022-08-05T09:42:23.500Z,28.80
2022-08-05T09:44:56.331Z,28.80
2022-08-05T09:47:36.341Z,28.80
2022-08-05T09:50:38.174Z,28.40
2022-08-05T09:53:08.751Z,28.40
2022-08-05T09:55:58.453Z,28.80
2022-08-05T09:58:29.131Z,28.80
2022-08-05T10:01:00.887Z,28.50
2022-08-05T10:03:56.675Z,28.60
2022-08-05T10:06:20.807Z,28.60
2022-08-05T10:08:54.018Z,28.20
2022-08-05T10:11:23.670Z,28.20
2022-08-05T10:13:58.831Z,28.20
2022-08-05T10:16:33.794Z,28.00
2022-08-05T10:19:08.446Z,27.90
2022-08-05T10:21:39.965Z,27.70
2022-08-05T10:24:12.827Z,27.70
2022-08-05T10:26:52.021Z,27.50
2022-08-05T10:29:23.640Z,27.20
2022-08-05T10:32:55.176Z,27.00
2022-08-05T10:35:01.021Z,26.60
2022-08-05T10:37:40.286Z,26.40
2022-08-05T10:40:28.140Z,26.10
2022-08-05T10:43:00.684Z,25.70
2022-08-05T10:45:40.270Z,25.80
2022-08-05T10:48:52.916Z,25.90
2022-08-05T10:51:29.325Z,25.70
2022-08-05T10:54:01.809Z,25.60
2022-08-05T10:56:45.806Z,25.50
2022-08-05T11:00:02.220Z,25.20
2022-08-05T11:02:14.124Z,25.10
2022-08-05T11:04:46.251Z,25.10
2022-08-05T11:07:16.398Z,25.10
2022-08-05T11:09:47.425Z,25.20
2022-08-05T11:12:50.932Z,25.30
2022-08-05T11:16:01.362Z,25.20
2022-08-05T11:18:27.215Z,25.00
2022-08-05T11:20:58.261Z,24.80
2022-08-05T11:24:04.076Z,24.70
2022-08-05T11:26:28.503Z,24.70
2022-08-05T11:29:06.644Z,24.50
2022-08-05T11:31:57.537Z,24.40
2022-08-05T11:34:51.502Z,24.40
2022-08-05T11:38:30.245Z,24.40
2022-08-05T11:41:34.314Z,24.30
2022-08-05T11:44:05.365Z,24.30
2022-08-05T11:46:37.722Z,24.40
2022-08-05T11:49:08.010Z,24.30
2022-08-05T11:51:44.207Z,24.20
2022-08-05T11:54:24.472Z,24.20
2022-08-05T11:57:08.678Z,24.00
2022-08-05T11:59:52.938Z,23.80
2022-08-05T12:02:31.633Z,23.80
2022-08-05T12:05:06.829Z,23.30
2022-08-05T12:08:10.541Z,23.10
2022-08-05T12:10:43.783Z,23.00
2022-08-05T12:13:16.650Z,22.70
2022-08-05T12:15:49.508Z,22.70
2022-08-05T12:18:20.720Z,22.90
2022-08-05T12:20:52.232Z,22.80
2022-08-05T12:23:19.959Z,22.80
2022-08-05T12:25:52.483Z,22.70
2022-08-05T12:28:38.188Z,22.70
2022-08-05T12:31:07.348Z,22.80
2022-08-05T12:33:36.934Z,22.60
2022-08-05T12:36:08.729Z,22.30
2022-08-05T12:38:38.296Z,21.90
2022-08-05T12:41:12.882Z,22.20
2022-08-05T12:43:52.672Z,22.20
2022-08-05T12:46:28.963Z,22.20
2022-08-05T12:48:59.550Z,22.50
2022-08-05T12:52:13.901Z,22.20
2022-08-05T12:54:26.501Z,21.90
2022-08-05T12:56:56.566Z,21.70
2022-08-05T12:59:46.952Z,21.50
2022-08-05T13:02:18.349Z,21.30
2022-08-05T13:04:52.531Z,21.20
2022-08-05T13:07:56.147Z,21.20
2022-08-05T13:10:14.247Z,21.10
2022-08-05T13:12:51.209Z,21.20
2022-08-05T13:15:42.131Z,21.20
2022-08-05T13:18:20.348Z,21.30
2022-08-05T13:20:49.923Z,21.40
2022-08-05T13:23:22.529Z,21.70
2022-08-05T13:25:59.228Z,21.70
2022-08-05T13:28:29.686Z,21.80
2022-08-05T13:31:00.195Z,21.90
2022-08-05T13:34:23.244Z,21.80
2022-08-05T13:36:30.015Z,21.70
2022-08-05T13:38:57.931Z,21.80
2022-08-05T13:41:37.604Z,21.70
2022-08-05T13:44:06.177Z,21.50
2022-08-05T13:46:50.819Z,21.50
2022-08-05T13:49:23.065Z,21.50
2022-08-05T13:51:51.315Z,21.70
2022-08-05T13:54:25.167Z,21.40
2022-08-05T13:56:53.478Z,21.30
2022-08-05T13:59:24.930Z,21.60
2022-08-05T14:01:59.235Z,21.80
2022-08-05T14:04:50.850Z,21.90
2022-08-05T14:07:56.853Z,22.10
2022-08-05T14:10:12.873Z,22.20
2022-08-05T14:12:42.876Z,22.30
2022-08-05T14:16:08.603Z,22.10
2022-08-05T14:18:05.902Z,21.50
2022-08-05T14:20:47.109Z,21.80
2022-08-05T14:23:24.729Z,21.80
2022-08-05T14:25:54.538Z,21.90
2022-08-05T14:28:27.280Z,21.90
2022-08-05T14:30:55.850Z,21.80
2022-08-05T14:33:24.332Z,22.10
2022-08-05T14:35:54.750Z,21.90
2022-08-05T14:38:27.692Z,21.60
2022-08-05T14:41:01.743Z,21.40
2022-08-05T14:43:59.481Z,21.20
2022-08-05T14:46:22.108Z,21.30
2022-08-05T14:48:50.205Z,21.60
2022-08-05T14:51:19.489Z,21.70
2022-08-05T14:54:26.790Z,21.60
2022-08-05T14:56:37.985Z,22.00
2022-08-05T14:59:12.764Z,22.20
2022-08-05T15:01:48.055Z,22.10
2022-08-05T15:04:17.440Z,21.60
2022-08-05T15:06:50.263Z,21.60
2022-08-05T15:09:51.048Z,21.60
2022-08-05T15:12:06.916Z,21.70
2022-08-05T15:14:48.050Z,21.30
2022-08-05T15:17:46.749Z,21.30
2022-08-05T15:20:06.107Z,21.40
2022-08-05T15:22:35.223Z,21.60
2022-08-05T15:25:13.851Z,21.80
2022-08-05T15:27:42.956Z,21.70
2022-08-05T15:30:20.067Z,21.70
2022-08-05T15:32:47.889Z,21.70
2022-08-05T15:35:15.940Z,22.10
2022-08-05T15:38:32.953Z,22.30
2022-08-05T15:41:00.836Z,22.20
2022-08-05T15:43:21.641Z,22.00
2022-08-05T15:46:00.198Z,22.00
2022-08-05T15:48:29.834Z,21.80
2022-08-05T15:50:58.198Z,21.90
2022-08-05T15:53:38.265Z,22.30
2022-08-05T15:56:18.205Z,22.40
2022-08-05T15:58:46.636Z,22.20
2022-08-05T16:01:16.158Z,21.90
2022-08-05T16:03:48.524Z,21.80
2022-08-05T16:06:19.967Z,21.90
2022-08-05T16:08:53.650Z,22.00
2022-08-05T16:11:42.482Z,22.00
2022-08-05T16:14:17.230Z,22.30
2022-08-05T16:16:46.093Z,21.90
2022-08-05T16:19:25.636Z,21.80
2022-08-05T16:22:03.457Z,21.60
2022-08-05T16:24:41.824Z,21.90
2022-08-05T16:27:32.241Z,21.70
2022-08-05T16:30:23.085Z,22.10
2022-08-05T16:32:53.756Z,22.60
2022-08-05T16:35:27.585Z,22.40
2022-08-05T16:38:15.745Z,22.20
2022-08-05T16:40:48.074Z,22.10
2022-08-05T16:43:24.056Z,22.40
2022-08-05T16:46:03.614Z,22.60
2022-08-05T16:48:36.195Z,22.40
2022-08-05T16:51:09.904Z,22.50
2022-08-05T16:54:05.650Z,22.40
2022-08-05T16:56:29.944Z,22.60
2022-08-05T16:58:58.189Z,22.80
2022-08-05T17:01:26.784Z,23.20
2022-08-05T17:03:54.608Z,23.00
2022-08-05T17:06:24.699Z,22.60
2022-08-05T17:08:54.468Z,22.90
2022-08-05T17:11:23.891Z,22.80
2022-08-05T17:14:05.371Z,22.90
2022-08-05T17:16:36.226Z,22.90
2022-08-05T17:19:07.737Z,22.90
2022-08-05T17:21:39.337Z,22.90
2022-08-05T17:24:28.392Z,22.40
2022-08-05T17:26:57.525Z,22.60
2022-08-05T17:29:33.072Z,22.70
2022-08-05T17:32:08.437Z,22.30
2022-08-05T17:34:39.491Z,22.60
2022-08-05T17:37:29.473Z,22.60
2022-08-05T17:39:56.161Z,22.60
2022-08-05T17:42:31.844Z,22.50
2022-08-05T17:45:09.704Z,22.40
2022-08-05T17:47:38.225Z,22.30
2022-08-05T17:50:10.898Z,22.30
2022-08-05T17:52:53.254Z,22.40
2022-08-05T17:55:22.826Z,22.70
2022-08-05T17:58:02.131Z,22.80
2022-08-05T18:00:32.672Z,22.60
2022-08-05T18:03:00.473Z,22.50
2022-08-05T18:05:28.417Z,22.30
2022-08-05T18:08:03.594Z,22.30
2022-08-05T18:10:33.698Z,22.20
2022-08-05T18:13:01.942Z,21.90
2022-08-05T18:15:38.657Z,22.00
2022-08-05T18:18:11.099Z,22.00
2022-08-05T18:20:39.385Z,22.30
2022-08-05T18:23:09.391Z,22.30
2022-08-05T18:25:45.239Z,22.30
2022-08-05T18:28:16.578Z,22.10
2022-08-05T18:30:50.767Z,22.20
2022-08-05T18:33:23.085Z,22.40
2022-08-05T18:36:03.944Z,22.30
2022-08-05T18:38:36.158Z,22.30
2022-08-05T18:42:00.388Z,22.40
2022-08-05T18:43:52.217Z,22.30
2022-08-05T18:46:29.063Z,22.40
2022-08-05T18:49:17.118Z,22.40
2022-08-05T18:52:08.962Z,22.40
2022-08-05T18:54:41.237Z,22.40
2022-08-05T18:57:15.433Z,22.30
2022-08-05T19:00:02.302Z,22.10
2022-08-05T19:02:32.884Z,22.00
2022-08-05T19:06:06.204Z,21.70
2022-08-05T19:07:49.955Z,21.60
2022-08-05T19:10:26.676Z,21.60
2022-08-05T19:12:56.595Z,21.70
2022-08-05T19:15:57.332Z,21.90
2022-08-05T19:18:21.966Z,22.00
2022-08-05T19:20:51.987Z,21.80
2022-08-05T19:23:22.362Z,21.90
2022-08-05T19:26:08.405Z,22.10
2022-08-05T19:28:41.533Z,22.20
2022-08-05T19:31:12.871Z,22.10
2022-08-05T19:33:48.642Z,22.20
2022-08-05T19:36:25.187Z,22.30
2022-08-05T19:38:54.400Z,22.00
2022-08-05T19:42:05.519Z,21.70
2022-08-05T19:44:12.995Z,21.40
2022-08-05T19:46:43.756Z,21.00
2022-08-05T19:49:16.517Z,21.10
2022-08-05T19:52:13.147Z,21.30
2022-08-05T19:54:34.644Z,21.20
2022-08-05T19:57:06.403Z,21.20
2022-08-05T20:00:01.534Z,21.20
2022-08-05T20:02:26.285Z,21.10
2022-08-05T20:04:58.802Z,21.00
2022-08-05T20:07:46.331Z,20.80
2022-08-05T20:10:15.321Z,21.00
2022-08-05T20:12:47.521Z,21.10
2022-08-05T20:15:48.468Z,21.10
2022-08-05T20:18:10.689Z,21.00
2022-08-05T20:20:56.193Z,21.10
2022-08-05T20:23:44.523Z,21.20
2022-08-05T20:26:15.879Z,21.30
2022-08-05T20:28:45.843Z,21.10
2022-08-05T20:31:16.553Z,21.20
2022-08-05T20:33:45.192Z,21.20
2022-08-05T20:36:16.195Z,21.20
2022-08-05T20:38:54.581Z,21.30
2022-08-05T20:41:43.046Z,21.20
2022-08-05T20:44:17.851Z,20.90
2022-08-05T20:46:57.655Z,20.90
2022-08-05T20:49:25.881Z,21.10
2022-08-05T20:51:57.372Z,21.10
2022-08-05T20:54:26.987Z,21.00
2022-08-05T20:57:14.951Z,20.90
2022-08-05T21:00:20.614Z,20.90
2022-08-05T21:02:55.341Z,21.10
2022-08-05T21:05:24.833Z,21.10
2022-08-05T21:07:53.929Z,20.70
2022-08-05T21:10:24.102Z,20.70
2022-08-05T21:12:57.594Z,20.90
2022-08-05T21:15:33.763Z,20.90
2022-08-05T21:18:02.000Z,20.90
2022-08-05T21:20:32.773Z,20.90
2022-08-05T21:23:03.114Z,20.90
2022-08-05T21:25:33.822Z,20.90
2022-08-05T21:28:02.911Z,20.90
2022-08-05T21:30:31.454Z,20.80
2022-08-05T21:32:59.749Z,20.80
2022-08-05T21:35:55.786Z,20.70
2022-08-05T21:38:19.076Z,20.60
2022-08-05T21:40:46.830Z,20.50
2022-08-05T21:43:24.047Z,20.40
2022-08-05T21:45:57.597Z,20.20
2022-08-05T21:48:28.617Z,20.10
2022-08-05T21:50:57.292Z,20.00
2022-08-05T21:53:27.356Z,19.70
2022-08-05T21:56:04.781Z,19.50
2022-08-05T21:58:36.671Z,19.20
2022-08-05T22:01:10.788Z,19.10
2022-08-05T22:03:51.773Z,19.00
2022-08-05T22:06:22.432Z,18.90
2022-08-05T22:08:53.407Z,18.80
2022-08-05T22:11:34.823Z,18.80
2022-08-05T22:14:34.343Z,18.70
2022-08-05T22:16:56.795Z,18.60
2022-08-05T22:20:01.932Z,18.60
2022-08-05T22:22:15.572Z,18.60
2022-08-05T22:25:02.844Z,18.60
2022-08-05T22:28:10.577Z,18.50
2022-08-05T22:30:37.481Z,18.50
2022-08-05T22:33:57.282Z,18.40
2022-08-05T22:36:09.462Z,18.40
2022-08-05T22:38:37.848Z,18.40
2022-08-05T22:41:11.843Z,18.60
2022-08-05T22:43:42.840Z,18.90
2022-08-05T22:46:13.200Z,19.00
2022-08-05T22:48:48.724Z,19.20
2022-08-05T22:51:23.348Z,19.10
2022-08-05T22:54:04.372Z,19.20
2022-08-05T22:56:33.611Z,19.30
2022-08-05T22:59:03.155Z,19.20
2022-08-05T23:02:03.815Z,19.20
2022-08-05T23:04:20.286Z,19.10
2022-08-05T23:06:48.123Z,19.00
2022-08-05T23:09:52.590Z,18.80
2022-08-05T23:12:05.718Z,18.70
2022-08-05T23:14:34.050Z,18.70
2022-08-05T23:17:24.245Z,18.70
2022-08-05T23:20:02.687Z,18.60
2022-08-05T23:22:31.082Z,18.50
2022-08-05T23:24:59.260Z,18.40
2022-08-05T23:27:42.261Z,18.50
2022-08-05T23:30:17.114Z,18.70
2022-08-05T23:32:45.269Z,18.70
2022-08-05T23:35:13.556Z,18.80
2022-08-05T23:37:41.358Z,18.80
2022-08-05T23:40:11.905Z,18.80
2022-08-05T23:42:41.118Z,18.70
2022-08-05T23:45:15.842Z,18.30
2022-08-05T23:47:47.834Z,18.10
2022-08-05T23:50:17.107Z,17.90
2022-08-05T23:52:49.435Z,17.80
2022-08-05T23:55:18.193Z,18.00
2022-08-05T23:57:51.254Z,18.10
